Time;durP1;ratioP1;P1;durP2;ratioP2;P2;SDS_P1;SDS_P2;PMS_P1;PMS_P2;Temp;Humidity;BMP_temperature;BMP_pressure;BME280_temperature;BME280_humidity;BME280_pressure;Samples;Min_cycle;Max_cycle;Signal;HPM_P1;HPM_P2
2022/01/08 00:01:14;;;;;;;8.52;1.13;;;;;;;1.48;86.75;101191.84;5011348;28;20037;-86
2022/01/08 00:03:40;;;;;;;10.32;1.63;;;;;;;1.55;86.16;101202.31;5007034;28;20033;-83
2022/01/08 00:06:07;;;;;;;11.15;1.90;;;;;;;1.63;85.45;101196.13;4989937;28;20100;-83
2022/01/08 00:08:32;;;;;;;9.27;1.40;;;;;;;1.66;84.93;101189.09;4999890;28;20036;-84
2022/01/08 00:10:58;;;;;;;6.00;1.20;;;;;;;1.72;84.54;101199.56;5023864;28;20034;-84
2022/01/08 00:13:23;;;;;;;12.23;1.30;;;;;;;1.78;84.06;101198.66;4992826;28;20109;-84
2022/01/08 00:15:49;;;;;;;11.48;1.83;;;;;;;1.83;83.85;101199.47;4993466;28;20018;-84
2022/01/08 00:18:14;;;;;;;5.97;1.42;;;;;;;1.86;83.51;101201.19;5006975;28;20030;-84
2022/01/08 00:20:40;;;;;;;5.45;1.38;;;;;;;1.85;83.44;101200.34;5014204;28;20038;-85
2022/01/08 00:23:05;;;;;;;2.15;1.40;;;;;;;1.79;83.03;101203.03;4993151;28;20029;-84
2022/01/08 00:25:30;;;;;;;12.13;1.40;;;;;;;1.81;83.51;101210.88;5024742;28;20480;-84
2022/01/08 00:27:56;;;;;;;3.13;1.20;;;;;;;1.86;82.98;101211.72;5010838;28;20125;-84
2022/01/08 00:30:21;;;;;;;9.95;1.60;;;;;;;1.85;82.96;101217.84;5013229;28;20281;-84
2022/01/08 00:32:46;;;;;;;5.13;1.10;;;;;;;1.86;82.81;101212.59;5033045;28;20032;-84
2022/01/08 00:35:12;;;;;;;6.65;1.52;;;;;;;1.84;82.85;101210.88;5033722;28;20078;-81
2022/01/08 00:37:38;;;;;;;6.07;1.85;;;;;;;1.85;82.65;101204.69;5034116;28;20306;-81
2022/01/08 00:40:05;;;;;;;9.18;1.25;;;;;;;1.83;82.53;101203.88;5033736;28;20021;-81
2022/01/08 00:42:30;;;;;;;5.20;1.48;;;;;;;1.81;82.98;101205.63;5032557;28;20056;-83
2022/01/08 00:44:56;;;;;;;5.82;1.00;;;;;;;1.82;82.67;101204.75;5050369;28;20459;-84
2022/01/08 00:47:21;;;;;;;5.75;1.45;;;;;;;1.81;82.74;101203.00;5017221;28;20033;-83
2022/01/08 00:49:46;;;;;;;6.57;1.67;;;;;;;1.79;82.81;101189.88;5036823;28;20028;-84
2022/01/08 00:52:12;;;;;;;7.72;1.20;;;;;;;1.76;83.00;101183.75;5036680;28;20037;-84
2022/01/08 00:54:38;;;;;;;7.28;1.67;;;;;;;1.70;82.89;101196.06;5035206;28;20037;-84
2022/01/08 00:57:04;;;;;;;11.45;1.83;;;;;;;1.68;82.86;101192.59;5018761;28;20045;-83
2022/01/08 00:59:29;;;;;;;6.03;1.38;;;;;;;1.72;82.88;101202.19;5036725;28;20070;-83
2022/01/08 01:01:55;;;;;;;7.15;1.35;;;;;;;1.76;82.63;101202.19;5036709;28;20028;-83
2022/01/08 01:04:20;;;;;;;6.13;1.52;;;;;;;1.79;82.84;101210.03;5052368;28;20028;-83
2022/01/08 01:06:46;;;;;;;5.43;0.80;;;;;;;1.73;82.73;101201.31;5016947;28;20021;-83
2022/01/08 01:09:11;;;;;;;6.85;1.30;;;;;;;1.63;83.12;101207.50;5035285;28;20035;-83
2022/01/08 01:11:36;;;;;;;7.30;1.10;;;;;;;1.58;83.57;101211.94;5019789;28;20028;-83
2022/01/08 01:14:02;;;;;;;7.97;1.08;;;;;;;1.57;84.06;101212.81;5036094;28;20098;-83
2022/01/08 01:16:27;;;;;;;6.57;1.73;;;;;;;1.52;84.26;101199.72;5035962;28;20451;-83
2022/01/08 01:18:54;;;;;;;9.00;1.27;;;;;;;1.47;84.51;101205.88;5034902;28;20495;-84
2022/01/08 01:21:19;;;;;;;3.97;0.80;;;;;;;1.42;84.42;101204.16;5052309;28;20286;-83
2022/01/08 01:23:45;;;;;;;5.03;1.13;;;;;;;1.37;84.92;101208.59;5033990;28;20275;-83
2022/01/08 01:26:16;;;;;;;4.07;1.00;;;;;;;1.32;85.27;101210.34;5036124;28;20732;-83
2022/01/08 01:28:55;;;;;;;7.70;1.27;;;;;;;1.25;85.50;101213.91;5035781;28;20623;-83
2022/01/08 01:47:10;;;;;;;8.15;1.25;;;;;;;1.30;87.27;101225.28;5037913;28;20124;-83
2022/01/08 01:49:36;;;;;;;;;;;;;;;1.35;87.15;101228.75;5019746;28;20386;-83
2022/01/08 01:52:04;;;;;;;5.05;1.52;;;;;;;1.37;87.13;101237.50;5036061;28;20012;-83
2022/01/08 01:54:30;;;;;;;3.40;1.35;;;;;;;1.38;87.11;101236.59;5036850;28;20463;-84
2022/01/08 01:56:57;;;;;;;4.18;0.90;;;;;;;1.34;87.13;101242.78;5035451;28;20542;-83
2022/01/08 01:59:23;;;;;;;5.35;1.33;;;;;;;1.39;87.72;101243.59;5017748;28;20044;-84
2022/01/08 02:01:49;;;;;;;6.30;1.23;;;;;;;1.50;87.52;101243.53;5035606;28;20493;-84
2022/01/08 02:04:14;;;;;;;6.32;1.27;;;;;;;1.56;87.02;101246.16;5015984;28;20127;-83
2022/01/08 02:06:40;;;;;;;8.63;1.75;;;;;;;1.64;87.15;101239.97;5053070;28;20501;-83
2022/01/08 02:09:05;;;;;;;5.63;1.00;;;;;;;1.71;86.61;101241.66;5053415;28;20070;-84
2022/01/08 02:11:30;;;;;;;9.80;1.30;;;;;;;1.74;86.56;101239.00;5035318;28;20103;-84
2022/01/08 02:14:03;;;;;;;5.68;1.23;;;;;;;1.86;87.03;101235.38;5035672;28;20067;-84
2022/01/08 02:16:29;;;;;;;4.72;1.27;;;;;;;1.99;86.87;101231.75;5051686;28;20021;-84
2022/01/08 02:18:54;;;;;;;7.32;1.50;;;;;;;2.09;86.74;101244.84;5034232;28;20452;-83
2022/01/08 02:21:20;;;;;;;13.18;1.58;;;;;;;2.16;86.28;101241.28;5035775;28;20117;-85
2022/01/08 02:23:46;;;;;;;9.48;1.90;;;;;;;2.17;86.64;101240.38;5019985;28;20043;-84
2022/01/08 02:26:11;;;;;;;8.02;1.40;;;;;;;2.14;86.56;101240.44;5043047;28;20463;-84
2022/01/08 02:28:38;;;;;;;7.50;0.98;;;;;;;2.06;86.71;101240.50;5042523;28;20036;-84
2022/01/08 02:31:04;;;;;;;7.80;1.40;;;;;;;2.02;86.83;101236.16;5041261;28;20053;-84
2022/01/08 02:33:30;;;;;;;7.03;1.50;;;;;;;2.02;86.97;101239.66;5025446;28;20070;-84
2022/01/08 02:35:56;;;;;;;9.75;1.52;;;;;;;2.07;87.13;101241.38;5039451;28;20052;-84
2022/01/08 02:38:23;;;;;;;11.68;1.83;;;;;;;2.11;86.61;101229.94;5032309;28;20381;-84
2022/01/08 02:40:58;;;;;;;;;;;;;;;2.07;86.47;101229.09;5035135;28;20078;-84
2022/01/08 02:43:24;;;;;;;4.00;1.00;;;;;;;2.07;86.00;101241.38;5036191;28;19905;-84
2022/01/08 02:45:50;;;;;;;9.63;1.45;;;;;;;2.05;85.92;101228.22;5033479;28;20028;-84
2022/01/08 02:48:15;;;;;;;7.78;1.38;;;;;;;2.00;86.13;101230.03;5017843;28;20528;-84
2022/01/08 02:50:40;;;;;;;7.38;1.23;;;;;;;1.90;86.10;101227.47;5033943;28;20417;-84
2022/01/08 02:53:06;;;;;;;5.15;1.10;;;;;;;1.84;86.19;101229.28;5033898;28;20071;-83
2022/01/08 02:55:31;;;;;;;2.95;1.08;;;;;;;1.77;86.44;101233.72;5033784;28;20021;-84
2022/01/08 02:57:57;;;;;;;6.57;1.23;;;;;;;1.69;86.76;101236.38;5051848;28;20083;-84
2022/01/08 03:00:22;;;;;;;3.50;1.30;;;;;;;1.66;87.32;101228.53;5033733;28;20032;-84
2022/01/08 03:02:49;;;;;;;5.90;1.30;;;;;;;1.64;87.53;101225.03;5034250;28;20024;-84
2022/01/08 03:05:15;;;;;;;6.25;1.58;;;;;;;1.65;87.70;101224.16;5049318;28;20056;-84
2022/01/08 03:07:42;;;;;;;7.72;1.40;;;;;;;1.70;87.71;101224.13;5033293;28;20068;-84
2022/01/08 03:10:10;;;;;;;9.93;1.25;;;;;;;1.67;87.51;101222.41;5032492;28;20020;-84
2022/01/08 03:12:38;;;;;;;5.85;1.10;;;;;;;1.69;86.86;101220.59;5051488;28;20069;-84
2022/01/08 03:15:05;;;;;;;8.75;1.23;;;;;;;1.65;86.83;101218.91;5017286;28;20573;-85
2022/01/08 03:17:30;;;;;;;12.50;2.10;;;;;;;1.68;86.98;101216.25;5031943;28;20032;-85
2022/01/08 03:20:02;;;;;;;4.75;1.77;;;;;;;1.71;87.38;101226.75;5033522;28;20029;-85
2022/01/08 03:22:28;;;;;;;8.07;1.70;;;;;;;1.67;87.07;101227.66;5017837;28;20031;-85
2022/01/08 03:24:54;;;;;;;;;;;;;;;1.66;87.46;101230.28;5034123;28;20420;-84
2022/01/08 03:27:19;;;;;;;10.43;1.47;;;;;;;1.76;87.49;101233.75;5033450;28;19923;-84
2022/01/08 03:29:44;;;;;;;8.40;1.98;;;;;;;1.81;87.05;101230.16;5049497;28;20032;-84
2022/01/08 03:32:10;;;;;;;3.85;1.30;;;;;;;1.85;86.64;101231.00;5050775;28;20106;-85
2022/01/08 03:34:35;;;;;;;5.32;1.30;;;;;;;1.87;86.23;101219.63;5016888;28;20118;-84
2022/01/08 03:37:00;;;;;;;9.45;1.88;;;;;;;1.85;85.81;101221.38;5033275;28;20087;-84
2022/01/08 03:39:26;;;;;;;7.40;1.25;;;;;;;1.82;85.58;101220.53;5032878;28;20537;-84
2022/01/08 03:41:52;;;;;;;6.30;1.00;;;;;;;1.79;85.89;101220.53;5033140;28;20156;-84
2022/01/08 03:44:19;;;;;;;3.30;1.20;;;;;;;1.79;85.94;101220.53;5050568;28;20044;-84
2022/01/08 03:46:44;;;;;;;3.58;1.10;;;;;;;1.83;86.09;101217.03;5032253;28;20029;-84
2022/01/08 03:49:17;;;;;;;2.95;0.95;;;;;;;1.77;86.12;101223.19;5050626;28;20490;-84
2022/01/08 03:51:43;;;;;;;2.80;0.85;;;;;;;1.68;86.21;101225.88;5034513;28;20551;-84
2022/01/08 03:54:08;;;;;;;1.67;0.77;;;;;;;1.63;86.66;101220.66;5032899;28;20074;-84
2022/01/08 03:56:34;;;;;;;5.68;1.30;;;;;;;1.61;86.79;101224.19;5033082;28;20017;-84
2022/01/08 03:58:59;;;;;;;6.78;1.02;;;;;;;1.53;86.87;101221.63;5031458;28;20491;-83
2022/01/08 04:01:24;;;;;;;3.25;0.98;;;;;;;1.45;87.21;101220.81;5032815;28;20029;-84
2022/01/08 04:03:49;;;;;;;4.43;1.02;;;;;;;1.38;88.22;101214.72;5016637;28;20025;-84
2022/01/08 04:06:15;;;;;;;3.77;0.63;;;;;;;1.34;88.37;101224.38;5016396;28;20127;-84
2022/01/08 04:08:40;;;;;;;1.88;0.90;;;;;;;1.31;88.51;101221.75;5032662;28;20366;-84
2022/01/08 04:11:06;;;;;;;4.78;1.15;;;;;;;1.30;88.95;101222.66;5049571;28;20026;-84
2022/01/08 04:13:35;;;;;;;5.13;1.08;;;;;;;1.28;88.99;101224.41;5016933;28;20055;-83
2022/01/08 04:16:09;;;;;;;5.53;1.20;;;;;;;1.24;89.07;101225.28;5034020;28;20024;-84
2022/01/08 04:18:35;;;;;;;3.20;1.05;;;;;;;1.22;89.15;101234.97;5034829;28;20029;-84
2022/01/08 04:23:44;;;;;;;5.50;1.30;;;;;;;1.15;89.78;101239.38;5049839;28;20047;-84
2022/01/08 04:26:09;;;;;;;5.28;1.23;;;;;;;1.07;89.61;101231.50;5050742;28;20120;-84
2022/01/08 04:28:35;;;;;;;2.78;1.00;;;;;;;1.03;89.85;101244.69;5050405;28;20025;-84
2022/01/08 04:31:00;;;;;;;5.53;1.52;;;;;;;0.99;90.04;101251.72;5050485;28;20053;-84
2022/01/08 04:33:25;;;;;;;2.30;1.33;;;;;;;0.97;90.38;101252.56;5050717;28;20024;-84
2022/01/08 04:35:51;;;;;;;8.35;1.60;;;;;;;0.99;90.02;101253.44;5032693;28;20375;-84
2022/01/08 04:38:16;;;;;;;10.02;1.65;;;;;;;1.01;90.43;101251.69;5032414;28;20025;-84
2022/01/08 04:40:41;;;;;;;7.78;1.20;;;;;;;0.97;90.38;101250.84;5030455;28;20024;-84
2022/01/08 04:43:07;;;;;;;15.80;1.70;;;;;;;0.97;90.65;101260.47;5050357;28;20025;-84
2022/01/08 04:45:33;;;;;;;4.07;1.00;;;;;;;0.99;90.54;101258.69;5030890;28;20029;-85
2022/01/08 04:48:00;;;;;;;6.68;1.60;;;;;;;1.04;90.78;101263.06;5032413;28;20044;-84
2022/01/08 04:50:26;;;;;;;5.05;1.25;;;;;;;1.05;90.78;101267.44;5050425;28;20494;-84
2022/01/08 04:52:52;;;;;;;9.35;1.23;;;;;;;1.12;90.76;101267.41;5031967;28;20033;-84
2022/01/08 04:55:17;;;;;;;6.55;1.05;;;;;;;1.13;90.87;101261.28;5015965;28;20206;-84
2022/01/08 04:57:43;;;;;;;8.68;1.20;;;;;;;1.06;90.70;101256.06;5049913;28;20108;-84
2022/01/08 05:00:09;;;;;;;7.47;1.52;;;;;;;1.01;90.39;101257.81;5032496;28;20068;-84
2022/01/08 05:02:34;;;;;;;4.90;2.00;;;;;;;0.99;90.83;101254.34;5015584;28;20537;-84
2022/01/08 05:05:03;;;;;;;8.18;1.10;;;;;;;0.98;90.58;101262.22;5050145;28;20031;-84
2022/01/08 05:07:28;;;;;;;7.80;1.10;;;;;;;0.93;90.59;101262.22;5031986;28;20533;-84
2022/01/08 05:09:53;;;;;;;2.70;0.82;;;;;;;0.89;90.47;101264.00;5030783;28;20025;-84
2022/01/08 05:12:19;;;;;;;1.43;0.70;;;;;;;0.88;90.73;101256.13;5032578;28;20108;-84
2022/01/08 05:14:44;;;;;;;3.10;0.67;;;;;;;0.85;90.61;101257.00;5031994;28;20409;-84
2022/01/08 05:17:14;;;;;;;2.78;0.70;;;;;;;0.84;90.74;101249.16;5015731;28;20272;-84
2022/01/08 05:19:45;;;;;;;4.90;1.25;;;;;;;0.84;90.80;101257.03;5030162;28;20124;-83
2022/01/08 05:22:23;;;;;;;1.90;0.80;;;;;;;0.84;90.85;101260.50;5032290;28;20035;-84
2022/01/08 05:24:48;;;;;;;7.53;1.08;;;;;;;0.84;91.02;101270.16;5016614;28;20020;-84
2022/01/08 05:27:17;;;;;;;1.92;1.10;;;;;;;0.81;91.47;101278.03;5049744;28;20028;-84
2022/01/08 05:29:47;;;;;;;4.57;1.15;;;;;;;0.76;91.53;101275.41;5049519;28;20064;-85
2022/01/08 05:32:16;;;;;;;4.93;1.13;;;;;;;0.72;92.04;101277.19;5032070;28;20120;-85
2022/01/08 05:34:49;;;;;;;3.45;1.98;;;;;;;0.70;93.07;101281.56;5052933;28;20025;-84
2022/01/08 05:37:18;;;;;;;6.53;1.30;;;;;;;0.72;93.13;101285.06;5019126;28;20028;-85
2022/01/08 05:39:45;;;;;;;2.35;1.00;;;;;;;0.74;93.13;101278.06;5036427;28;20051;-83
2022/01/08 05:42:11;;;;;;;4.22;0.88;;;;;;;0.76;93.09;101288.56;5037070;28;20099;-83
2022/01/08 05:44:36;;;;;;;4.57;1.13;;;;;;;0.79;93.21;101285.94;5037401;28;20032;-83
2022/01/08 05:47:03;;;;;;;3.88;1.10;;;;;;;0.83;92.87;101281.53;5017945;28;20025;-83
2022/01/08 05:49:28;;;;;;;;;;;;;;;0.85;92.58;101285.00;5037165;28;20017;-83
2022/01/08 05:51:53;;;;;;;3.30;0.80;;;;;;;0.84;92.49;101281.53;5036384;28;19939;-84
2022/01/08 05:54:18;;;;;;;7.70;1.35;;;;;;;0.82;92.63;101275.41;5036556;28;20170;-83
2022/01/08 05:56:44;;;;;;;6.47;1.00;;;;;;;0.79;93.50;101280.69;5036448;28;20021;-83
2022/01/08 05:59:09;;;;;;;2.28;0.90;;;;;;;0.79;93.40;101280.69;5036911;28;20032;-83
2022/01/08 06:01:35;;;;;;;6.97;1.00;;;;;;;0.77;93.18;101280.66;5054833;28;20036;-83
2022/01/08 06:04:01;;;;;;;3.58;1.25;;;;;;;0.77;93.21;101272.78;5041323;28;20029;-82
2022/01/08 06:06:27;;;;;;;4.30;1.10;;;;;;;0.78;93.16;101263.16;5024913;28;20033;-82
2022/01/08 06:08:52;;;;;;;6.82;1.55;;;;;;;0.77;93.66;101264.91;5041920;28;20021;-82
2022/01/08 06:11:17;;;;;;;5.22;1.00;;;;;;;0.74;93.96;101254.44;5021365;28;20043;-82
2022/01/08 06:13:43;;;;;;;1.13;0.57;;;;;;;0.72;94.05;101258.81;5036584;28;20024;-82
2022/01/08 06:16:08;;;;;;;5.03;0.98;;;;;;;0.69;93.90;101256.16;5037815;28;20029;-83
2022/01/08 06:18:34;;;;;;;4.33;1.47;;;;;;;0.66;94.21;101260.56;5036239;28;20072;-84
2022/01/08 06:21:00;;;;;;;5.47;1.30;;;;;;;0.61;93.87;101257.97;5017163;28;20283;-83
2022/01/08 06:23:26;;;;;;;6.60;1.40;;;;;;;0.57;94.08;101257.09;5019562;28;20025;-83
2022/01/08 06:25:51;;;;;;;1.92;0.95;;;;;;;0.54;94.13;101246.59;5053644;28;20025;-84
2022/01/08 06:28:17;;;;;;;5.07;1.20;;;;;;;0.51;94.17;101249.22;5019491;28;20024;-83
2022/01/08 06:30:42;;;;;;;1.50;0.93;;;;;;;0.49;94.34;101248.38;5035567;28;20116;-83
2022/01/08 06:33:07;;;;;;;1.42;0.77;;;;;;;0.45;94.44;101251.88;5035145;28;20104;-83
2022/01/08 06:35:33;;;;;;;6.75;1.27;;;;;;;0.41;94.56;101245.75;5035635;28;20158;-84
2022/01/08 06:37:58;;;;;;;5.50;1.05;;;;;;;0.39;94.92;101244.00;5035633;28;20232;-83
2022/01/08 06:40:23;;;;;;;7.78;1.58;;;;;;;0.36;95.35;101247.53;5019227;28;20052;-84
2022/01/08 06:42:49;;;;;;;7.45;1.02;;;;;;;0.34;95.15;101248.41;5048641;28;20025;-83
2022/01/08 06:45:14;;;;;;;3.42;1.30;;;;;;;0.33;95.47;101242.25;5018919;28;20024;-84
2022/01/08 06:47:42;;;;;;;5.40;1.35;;;;;;;0.30;95.78;101237.91;5018223;28;20036;-83
2022/01/08 06:50:07;;;;;;;2.97;1.58;;;;;;;0.30;95.98;101243.16;5035784;28;20029;-83
2022/01/08 06:52:33;;;;;;;6.72;1.40;;;;;;;0.30;95.89;101239.66;5018959;28;20364;-83
2022/01/08 06:54:58;;;;;;;1.73;1.10;;;;;;;0.33;96.19;101231.75;5035509;28;20024;-83
2022/01/08 06:57:24;;;;;;;4.43;1.58;;;;;;;0.40;96.04;101238.75;5052884;28;20021;-83
2022/01/08 06:59:49;;;;;;;10.95;1.73;;;;;;;0.47;96.02;101229.13;5018493;28;20027;-82
2022/01/08 07:02:15;;;;;;;2.00;1.25;;;;;;;0.52;95.81;101223.88;5051311;28;20114;-83
2022/01/08 07:04:43;;;;;;;4.10;1.70;;;;;;;0.58;95.89;101229.94;5053012;28;20614;-82
2022/01/08 07:07:09;;;;;;;6.97;1.70;;;;;;;0.62;95.91;101231.72;5051985;28;20486;-83
2022/01/08 07:09:37;;;;;;;9.93;2.30;;;;;;;0.69;95.81;101232.53;5033657;28;20029;-83
2022/01/08 07:12:03;;;;;;;9.20;1.65;;;;;;;0.74;95.61;101228.16;5016848;28;20081;-83
2022/01/08 07:14:31;;;;;;;5.22;1.45;;;;;;;0.78;95.47;101223.78;5014173;28;20033;-84
2022/01/08 07:16:57;;;;;;;7.22;1.45;;;;;;;0.83;95.48;101218.50;5016198;28;20032;-83
2022/01/08 07:19:23;;;;;;;5.57;1.85;;;;;;;0.89;95.41;101215.84;5029686;28;20024;-84
2022/01/08 07:21:48;;;;;;;5.53;1.60;;;;;;;0.96;95.18;101221.97;5016372;28;20033;-84
2022/01/08 07:24:17;;;;;;;6.00;2.47;;;;;;;0.98;95.25;101210.56;5015559;28;20024;-84
2022/01/08 07:26:42;;;;;;;7.65;2.70;;;;;;;1.02;95.35;101214.91;5016218;28;20536;-83
2022/01/08 07:29:11;;;;;;;8.60;1.88;;;;;;;1.06;94.96;101207.88;5016037;28;20036;-84
2022/01/08 07:31:36;;;;;;;8.13;1.83;;;;;;;1.07;95.28;101205.22;5016240;28;20041;-84
2022/01/08 07:34:05;;;;;;;5.38;1.65;;;;;;;1.14;95.26;101215.75;5033137;28;20356;-85
2022/01/08 07:37:02;;;;;;;5.60;1.70;;;;;;;1.23;95.26;101208.66;5034724;28;20475;-85
2022/01/08 07:39:27;;;;;;;6.88;1.92;;;;;;;1.30;95.45;101199.00;5032679;28;20158;-85
2022/01/08 07:41:53;;;;;;;9.82;1.90;;;;;;;1.31;95.16;101198.09;5016555;28;20025;-85
2022/01/08 07:44:18;;;;;;;6.43;1.65;;;;;;;1.35;95.18;101193.69;5019240;28;20025;-85
2022/01/08 07:46:44;;;;;;;6.25;1.40;;;;;;;1.37;94.89;101195.44;5031448;28;20034;-87
2022/01/08 07:49:10;;;;;;;22.17;2.35;;;;;;;1.39;94.91;101200.69;5028960;28;20036;-87
2022/01/08 07:51:37;;;;;;;9.45;2.08;;;;;;;1.41;95.01;101197.16;5033266;28;20484;-86
2022/01/08 07:54:12;;;;;;;16.65;2.15;;;;;;;1.44;94.97;101198.88;5011664;28;20029;-86
2022/01/08 07:56:37;;;;;;;7.28;1.63;;;;;;;1.50;95.08;101198.84;5048012;28;20021;-86
2022/01/08 07:59:35;;;;;;;9.98;1.75;;;;;;;1.57;95.22;101192.66;5015048;28;20058;-84
2022/01/08 08:02:04;;;;;;;;;;;;;;;1.62;95.29;101187.34;4964075;28;20037;-85
2022/01/08 08:04:33;;;;;;;12.48;2.13;;;;;;;1.65;95.18;101181.22;5013982;28;20011;-85
2022/01/08 08:06:58;;;;;;;7.97;2.10;;;;;;;1.67;95.52;101176.81;5034790;28;20391;-86
2022/01/08 08:09:23;;;;;;;10.18;2.13;;;;;;;1.71;95.72;101186.44;5017455;28;20062;-86
2022/01/08 08:11:49;;;;;;;7.22;1.60;;;;;;;1.73;95.79;101185.53;5033639;28;20036;-90
2022/01/08 08:14:14;;;;;;;5.90;2.63;;;;;;;1.79;95.41;101173.19;5016972;28;20029;-83
2022/01/08 08:16:42;;;;;;;9.05;2.25;;;;;;;1.82;95.79;101176.66;5029628;28;20017;-83
2022/01/08 08:19:08;;;;;;;12.65;2.35;;;;;;;1.85;95.78;101167.88;5033634;28;20124;-82
2022/01/08 08:21:33;;;;;;;10.07;1.98;;;;;;;1.87;95.89;101168.75;5031030;28;20064;-82
2022/01/08 08:24:00;;;;;;;5.82;1.70;;;;;;;1.94;96.00;101162.53;5016888;28;20031;-82
2022/01/08 08:26:25;;;;;;;7.72;1.80;;;;;;;1.97;95.72;101167.78;5031282;28;20083;-82
2022/01/08 08:28:51;;;;;;;11.95;1.92;;;;;;;1.95;95.91;101153.75;5017184;28;20475;-83
2022/01/08 08:31:16;;;;;;;9.03;1.97;;;;;;;1.99;96.00;101160.72;5017539;28;20565;-82
2022/01/08 08:33:41;;;;;;;8.93;2.27;;;;;;;2.07;95.54;101157.16;5017046;28;20430;-82
2022/01/08 08:36:06;;;;;;;10.13;2.20;;;;;;;2.07;95.72;101146.66;5033998;28;20434;-82
2022/01/08 08:38:32;;;;;;;11.20;2.40;;;;;;;2.11;95.80;101140.44;5033842;28;20032;-82
2022/01/08 08:40:57;;;;;;;6.75;2.13;;;;;;;2.16;95.27;101141.25;5033841;28;20021;-81
2022/01/08 08:43:23;;;;;;;12.52;2.70;;;;;;;2.21;94.85;101139.47;5017210;28;20032;-82
2022/01/08 08:45:48;;;;;;;14.63;2.50;;;;;;;2.21;94.66;101142.97;5051429;28;20033;-82
2022/01/08 08:48:15;;;;;;;9.52;2.53;;;;;;;2.22;94.80;101136.81;5033848;28;20060;-82
2022/01/08 08:50:41;;;;;;;8.30;3.10;;;;;;;2.24;94.97;101131.53;5033944;28;20428;-79
2022/01/08 08:53:06;;;;;;;5.85;2.78;;;;;;;2.26;95.06;101131.53;5033652;28;20020;-80
2022/01/08 08:55:31;;;;;;;9.03;3.13;;;;;;;2.26;94.82;101127.13;5017215;28;20025;-81
2022/01/08 08:57:57;;;;;;;11.45;4.07;;;;;;;2.28;95.38;101127.97;5017515;28;20267;-81
2022/01/08 09:00:22;;;;;;;15.13;3.80;;;;;;;2.25;95.15;101125.38;5017296;28;20032;-82
2022/01/08 09:02:48;;;;;;;12.32;4.00;;;;;;;2.28;95.68;101125.34;5051363;28;20075;-80
2022/01/08 09:05:13;;;;;;;10.05;4.28;;;;;;;2.30;95.70;101120.06;5033779;28;20083;-81
2022/01/08 09:07:39;;;;;;;10.48;3.95;;;;;;;2.29;95.61;101106.03;5017035;28;20029;-82
2022/01/08 09:10:06;;;;;;;9.60;3.65;;;;;;;2.31;95.81;101101.59;5037481;28;20035;-79
2022/01/08 09:12:32;;;;;;;13.68;4.05;;;;;;;2.35;95.71;101097.16;5037222;28;20109;-80
2022/01/08 09:14:57;;;;;;;9.23;4.03;;;;;;;2.40;95.73;101091.84;5055231;28;20074;-81
2022/01/08 09:17:24;;;;;;;7.18;4.55;;;;;;;2.45;95.64;101090.91;5037338;28;20055;-81
2022/01/08 09:19:49;;;;;;;11.52;4.28;;;;;;;2.48;95.95;101068.91;5020860;28;20039;-81
2022/01/08 09:22:15;;;;;;;14.88;5.30;;;;;;;2.56;95.87;101067.06;5037186;28;20458;-80
2022/01/08 09:24:40;;;;;;;7.93;4.32;;;;;;;2.58;95.76;101075.81;5021999;28;20052;-90
2022/01/08 09:27:05;;;;;;;10.40;4.82;;;;;;;2.59;95.47;101074.94;5022284;28;20029;-88
2022/01/08 09:29:31;;;;;;;10.32;5.45;;;;;;;2.66;94.49;101060.78;5038087;28;20021;-89
2022/01/08 09:31:56;;;;;;;12.55;5.63;;;;;;;2.65;94.58;101063.41;5022064;28;20131;-89
2022/01/08 09:34:22;;;;;;;13.23;5.55;;;;;;;2.67;94.52;101059.00;5017877;28;20025;-90
2022/01/08 09:36:48;;;;;;;10.98;5.65;;;;;;;2.71;94.46;101055.44;5020134;28;20025;-89
2022/01/08 09:39:16;;;;;;;;;;;;;;;2.77;94.06;101050.09;5019282;28;20372;-87
2022/01/08 09:41:41;;;;;;;14.38;5.25;;;;;;;2.76;94.07;101048.34;5018900;28;19948;-89
2022/01/08 09:44:07;;;;;;;13.57;5.53;;;;;;;2.80;94.40;101043.91;5019293;28;20026;-86
2022/01/08 09:46:32;;;;;;;12.57;6.70;;;;;;;2.85;94.14;101045.56;5034222;28;20061;-89
2022/01/08 09:48:58;;;;;;;18.83;5.85;;;;;;;2.85;94.16;101042.06;5018181;28;20025;-86
2022/01/08 09:51:24;;;;;;;15.60;6.65;;;;;;;2.85;94.10;101036.78;5035978;28;20091;-88
2022/01/08 09:53:49;;;;;;;12.77;5.47;;;;;;;2.85;94.22;101031.50;5017788;28;20088;-88
2022/01/08 09:56:14;;;;;;;10.63;6.20;;;;;;;2.88;94.34;101018.31;5018140;28;20026;-90
2022/01/08 09:58:40;;;;;;;15.23;5.88;;;;;;;2.90;94.44;101018.28;5035564;28;20064;-89
2022/01/08 10:01:23;;;;;;;12.38;6.05;;;;;;;2.92;94.33;101012.06;5035164;28;20112;-89
2022/01/08 10:03:48;;;;;;;8.32;5.63;;;;;;;2.94;94.14;100998.91;5036060;28;20417;-89
2022/01/08 10:06:20;;;;;;;14.10;5.88;;;;;;;2.97;93.91;100993.56;5033621;28;20036;-86
2022/01/08 10:08:46;;;;;;;12.00;5.57;;;;;;;2.99;93.45;100995.25;5016903;28;20159;-87
2022/01/08 10:11:12;;;;;;;11.85;5.85;;;;;;;3.05;93.36;100985.53;5017169;28;20057;-87
2022/01/08 10:13:42;;;;;;;14.27;5.07;;;;;;;3.09;92.91;100974.03;5017593;28;20104;-88
2022/01/08 10:19:00;;;;;;;12.05;5.60;;;;;;;3.14;92.28;100944.06;5020167;28;20502;-88
2022/01/08 10:21:32;;;;;;;9.88;5.32;;;;;;;3.17;92.19;100937.88;5036695;28;20029;-88
2022/01/08 10:24:04;;;;;;;11.88;5.97;;;;;;;3.23;91.70;100931.63;5017959;28;20395;-80
2022/01/08 10:26:32;;;;;;;9.60;5.78;;;;;;;3.28;91.37;100914.81;5016525;28;20487;-78
2022/01/08 10:28:59;;;;;;;11.88;5.22;;;;;;;3.31;91.73;100903.34;5016728;28;20022;-81
2022/01/08 10:31:27;;;;;;;14.00;4.70;;;;;;;3.34;91.55;100900.63;5016608;28;20403;-81
2022/01/08 10:33:59;;;;;;;11.20;5.00;;;;;;;3.37;91.06;100907.63;5016766;28;20444;-79
2022/01/08 10:36:30;;;;;;;10.30;5.45;;;;;;;3.39;91.39;100909.34;5034491;28;20025;-81
2022/01/08 10:38:57;;;;;;;15.82;4.47;;;;;;;3.47;90.71;100898.63;5016400;28;20108;-80
2022/01/08 10:41:24;;;;;;;8.68;4.63;;;;;;;3.53;90.34;100881.81;5019631;28;20033;-89
2022/01/08 10:44:05;;;;;;;11.90;4.85;;;;;;;3.57;89.98;100867.63;5018107;28;20032;-87
2022/01/08 10:46:30;;;;;;;8.60;4.43;;;;;;;3.66;89.15;100861.31;5016821;28;20079;-89
2022/01/08 10:48:55;;;;;;;8.45;3.50;;;;;;;3.72;87.76;100861.19;5016587;28;20030;-87
2022/01/08 10:51:23;;;;;;;7.80;3.73;;;;;;;3.82;87.14;100849.53;5016022;28;20041;-85
2022/01/08 10:54:08;;;;;;;12.70;4.32;;;;;;;3.84;86.69;100847.69;5033517;28;20371;-86
2022/01/08 10:56:37;;;;;;;7.30;3.50;;;;;;;3.86;86.36;100837.13;5033430;28;20037;-86
2022/01/08 10:59:24;;;;;;;9.77;3.53;;;;;;;3.90;86.18;100833.50;5015735;28;20047;-86
2022/01/08 11:02:03;;;;;;;11.23;3.67;;;;;;;3.95;85.42;100811.41;5015464;28;20045;-89
2022/01/08 11:04:34;;;;;;;8.15;2.88;;;;;;;3.99;85.08;100812.19;5033924;28;20021;-87
2022/01/08 11:07:23;;;;;;;6.80;2.63;;;;;;;4.02;84.93;100795.41;5033247;28;20391;-86
2022/01/08 11:09:53;;;;;;;6.95;3.10;;;;;;;4.04;83.54;100783.91;5004712;28;20052;-88
2022/01/08 11:12:28;;;;;;;7.03;3.00;;;;;;;4.06;83.69;100782.09;5015951;28;20071;-87
2022/01/08 11:17:33;;;;;;;12.70;2.90;;;;;;;4.10;84.29;100765.25;5016272;28;20025;-87
2022/01/08 11:20:04;;;;;;;8.43;2.70;;;;;;;4.18;84.36;100756.28;5032128;28;20026;-85
2022/01/08 11:22:31;;;;;;;12.02;2.42;;;;;;;4.19;83.15;100747.47;5033172;28;20037;-88
2022/01/08 11:24:56;;;;;;;10.98;2.30;;;;;;;4.19;83.20;100748.34;5015612;28;20407;-87
2022/01/08 11:27:25;;;;;;;8.25;2.40;;;;;;;4.25;83.52;100747.31;5033215;28;20036;-87
2022/01/08 11:30:07;;;;;;;5.07;2.33;;;;;;;4.23;84.85;100736.78;5015267;28;20087;-86
2022/01/08 11:32:34;;;;;;;6.15;2.25;;;;;;;4.21;84.81;100730.69;5014362;28;20495;-85
2022/01/08 11:35:00;;;;;;;9.90;2.38;;;;;;;4.23;84.48;100731.50;5015599;28;20029;-84
2022/01/08 11:37:25;;;;;;;7.50;2.28;;;;;;;4.21;84.86;100713.97;5015819;28;20399;-84
2022/01/08 11:39:52;;;;;;;6.88;2.13;;;;;;;4.14;85.43;100712.41;5031975;28;20029;-84
2022/01/08 11:42:22;;;;;;;7.13;2.17;;;;;;;4.08;85.69;100705.50;5016063;28;20032;-85
2022/01/08 11:44:49;;;;;;;7.35;2.88;;;;;;;4.03;86.05;100692.41;5015758;28;20113;-87
2022/01/08 11:47:16;;;;;;;6.55;2.15;;;;;;;3.96;87.21;100677.63;5015081;28;20023;-84
2022/01/08 11:49:41;;;;;;;6.05;2.35;;;;;;;3.96;87.03;100667.09;5015297;28;20083;-85
2022/01/08 11:52:17;;;;;;;7.13;2.22;;;;;;;3.94;86.71;100661.84;5015396;28;20431;-85
2022/01/08 11:54:44;;;;;;;8.13;2.13;;;;;;;3.92;86.86;100642.53;5032493;28;20391;-82
2022/01/08 11:57:20;;;;;;;6.88;2.20;;;;;;;3.88;87.27;100637.38;5032535;28;20426;-87